Startpagina
METAR-TAF:

METAR-TAF

Vliegvelden :

Aeroporto di Torino

Turijn, Italië

breedte: 45-13N, lengte: 007-39E, hoogte: 301 m

Actueel weer

Dit bericht is 38 minuten geleden gemaakt, om 01:20 UTC
Wind 3 kt uit het westzuidwesten
Temperatuur 19°C
Vochtigheid 73%
Druk 1017 hPa
Zicht 10 km of meer
Gebroken wolken op 11000 ft

METAR: LIMF 240120Z 24003KT 9999 BKN110 19/14 Q1017

Tijdstip: 03:58 (01:58 UTC)

Verwachting

Dit bericht is 2 uur en het 58 minuten geleden gemaakt, om 23:00 UTC
Verwachting geldig van 24 om 00 UTC tot 24 om 24 UTC
Wind 6 kt uit variabele richting
Zicht 10 km of meer
Verspreide wolken op 5000 ft

TAF: LIMF 232300Z 2400/2424 VRB06KT 9999 SCT050

Waarnemingen en weersverwachtingen van meer dan 4000 vliegvelden (METAR en TAF).

De beschikbare stations zijn de gele en rode punten op de kaart.

Ga met uw muis naar het station om de naam te zien.

Klik dan om waarnemingen en weersverwachtingen te zien.

kaart wijzigen: klik op de groene knoppen met een zwart kruis om in te zoomen, op de groene knop met een streepje om uit te zoomen of op de groene pijlen voor aangrenzende kaarten.


METAR-TAF: